LERT

Rota Naval Station Airport

Airport
ICAO code
LERT
Summary
ICAO Region
EUR
ICAO Territory
Location

, Andalucia

Serving
Rota
Elevation
86 ft
Coordinates
36° 38' 43" N , 6° 20' 58" W
Metar
Observation
LERT 071400Z 15009KT 110V170 9999 SCT038 18/14 Q1010 NOSIG
Station
Rota
Date/Time
2022-12-07 14:00:00
Wind direction
150°
Wind speed
09 kts
Lowest cloud amount
scattered clouds
Temperature
18°C
Dew point
14°C
Humidity
77%
QNH
1010 hPa
Weather condition
n/a

Runways

Designator Length Width Surface Rops
10/28 3689 61 ASP Yes/Yes

Airport map

Aerial View

SKYbrary Partners:

Safety knowledge contributed by: